createdAt,value
2022-09-28T00:02:09.753Z,4.75
2022-09-28T00:04:34.232Z,3.50
2022-09-28T00:06:57.714Z,3.60
2022-09-28T00:09:21.156Z,4.03
2022-09-28T00:11:46.057Z,4.03
2022-09-28T00:14:09.535Z,3.75
2022-09-28T00:16:39.690Z,3.80
2022-09-28T00:19:05.003Z,3.53
2022-09-28T00:21:30.827Z,3.67
2022-09-28T00:24:14.957Z,3.80
2022-09-28T00:26:40.612Z,3.80
2022-09-28T00:29:04.489Z,3.55
2022-09-28T00:31:31.698Z,3.50
2022-09-28T00:33:58.025Z,3.47
2022-09-28T00:36:21.653Z,3.25
2022-09-28T00:38:45.110Z,3.58
2022-09-28T00:41:08.807Z,3.38
2022-09-28T00:43:32.763Z,3.13
2022-09-28T00:46:01.675Z,3.47
2022-09-28T00:48:29.188Z,4.38
2022-09-28T00:50:54.434Z,4.10
2022-09-28T00:53:21.152Z,3.88
2022-09-28T00:55:51.193Z,4.40
2022-09-28T00:58:21.473Z,4.32
2022-09-28T01:00:45.168Z,4.32
2022-09-28T01:03:09.490Z,4.25
2022-09-28T01:05:34.529Z,4.93
2022-09-28T01:07:59.650Z,4.80
2022-09-28T01:10:24.042Z,4.53
2022-09-28T01:12:47.477Z,4.72
2022-09-28T01:15:11.879Z,4.60
2022-09-28T01:17:56.513Z,4.35
2022-09-28T01:20:40.317Z,4.90
2022-09-28T01:24:05.842Z,5.10
2022-09-28T01:27:01.401Z,4.68
2022-09-28T01:29:39.048Z,5.43
2022-09-28T01:32:18.324Z,5.80
2022-09-28T01:34:49.158Z,6.93
2022-09-28T01:37:22.664Z,6.22
2022-09-28T01:39:50.192Z,6.93
2022-09-28T01:42:22.128Z,6.90
2022-09-28T01:44:51.170Z,6.78
2022-09-28T01:47:20.534Z,7.10
2022-09-28T01:49:49.565Z,7.57
2022-09-28T01:52:19.226Z,6.82
2022-09-28T01:54:48.800Z,7.25
2022-09-28T01:57:20.880Z,8.40
2022-09-28T01:59:52.073Z,7.78
2022-09-28T02:02:20.845Z,8.35
2022-09-28T02:04:50.833Z,7.85
2022-09-28T02:07:21.162Z,7.28
2022-09-28T02:09:49.275Z,7.88
2022-09-28T02:12:23.608Z,7.80
2022-09-28T02:14:50.600Z,7.30
2022-09-28T02:17:16.165Z,7.90
2022-09-28T02:19:44.732Z,7.68
2022-09-28T02:22:23.330Z,8.40
2022-09-28T02:24:55.625Z,7.75
2022-09-28T02:27:36.266Z,7.45
2022-09-28T02:29:59.776Z,7.57
2022-09-28T02:32:23.813Z,7.80
2022-09-28T02:34:47.483Z,7.90
2022-09-28T02:37:11.036Z,7.70
2022-09-28T02:39:34.683Z,7.60
2022-09-28T02:42:08.511Z,7.97
2022-09-28T02:45:04.357Z,7.82
2022-09-28T02:47:48.156Z,8.70
2022-09-28T02:50:21.938Z,7.72
2022-09-28T02:53:17.652Z,8.43
2022-09-28T02:56:01.657Z,9.57
2022-09-28T02:58:36.350Z,9.80
2022-09-28T03:01:19.235Z,9.10
2022-09-28T03:03:49.966Z,9.70
2022-09-28T03:06:21.439Z,9.70
2022-09-28T03:08:52.911Z,10.18
2022-09-28T03:11:21.465Z,9.90
2022-09-28T03:13:48.235Z,10.55
2022-09-28T03:16:16.733Z,10.38
2022-09-28T03:18:42.473Z,9.98
2022-09-28T03:21:07.221Z,11.70
2022-09-28T03:23:31.055Z,12.52
2022-09-28T03:25:54.857Z,12.15
2022-09-28T03:28:18.626Z,12.18
2022-09-28T03:30:43.045Z,13.18
2022-09-28T03:33:08.188Z,13.77
2022-09-28T03:35:31.695Z,14.48
2022-09-28T03:37:57.037Z,14.80
2022-09-28T03:40:22.422Z,15.30
2022-09-28T03:42:46.059Z,15.15
2022-09-28T03:45:10.796Z,15.75
2022-09-28T03:47:34.693Z,16.20
2022-09-28T03:49:59.622Z,17.77
2022-09-28T03:52:24.819Z,16.48
2022-09-28T03:54:49.353Z,17.15
2022-09-28T03:57:13.314Z,17.75
2022-09-28T03:59:37.637Z,17.17
2022-09-28T04:02:01.145Z,15.50
2022-09-28T04:04:24.859Z,17.52
2022-09-28T04:06:50.119Z,19.33
2022-09-28T04:09:17.349Z,19.58
2022-09-28T04:11:59.834Z,19.33
2022-09-28T04:14:26.446Z,19.13
2022-09-28T04:16:52.270Z,19.42
2022-09-28T04:19:16.707Z,18.60
2022-09-28T04:22:04.909Z,19.33
2022-09-28T04:24:28.642Z,20.58
2022-09-28T04:26:52.125Z,20.42
2022-09-28T04:29:17.516Z,19.77
2022-09-28T04:31:55.572Z,18.83
2022-09-28T04:34:45.212Z,18.52
2022-09-28T04:37:10.356Z,19.08
2022-09-28T04:39:35.140Z,17.83
2022-09-28T04:41:58.675Z,19.33
2022-09-28T04:44:23.924Z,18.02
2022-09-28T04:46:53.418Z,18.40
2022-09-28T04:49:25.913Z,18.77
2022-09-28T04:51:51.163Z,18.52
2022-09-28T04:54:16.926Z,18.67
2022-09-28T04:56:40.394Z,19.80
2022-09-28T04:59:04.043Z,17.77
2022-09-28T05:01:27.829Z,28.10
2022-09-28T05:03:57.376Z,20.45
2022-09-28T05:06:32.981Z,19.15
2022-09-28T05:09:02.576Z,17.65
2022-09-28T05:11:27.552Z,18.95
2022-09-28T05:13:51.055Z,21.75
2022-09-28T05:16:17.263Z,19.77
2022-09-28T05:19:01.120Z,18.45
2022-09-28T05:21:26.406Z,18.05
2022-09-28T05:23:49.837Z,16.80
2022-09-28T05:26:13.391Z,18.88
2022-09-28T05:28:38.599Z,19.38
2022-09-28T05:31:27.185Z,17.55
2022-09-28T05:34:14.115Z,18.20
2022-09-28T05:36:39.198Z,18.10
2022-09-28T05:39:04.030Z,14.52
2022-09-28T05:41:27.853Z,14.93
2022-09-28T05:43:52.823Z,15.25
2022-09-28T05:46:16.408Z,15.50
2022-09-28T05:48:39.894Z,13.85
2022-09-28T05:51:04.235Z,14.02
2022-09-28T05:53:28.101Z,13.38
2022-09-28T05:55:51.728Z,12.85
2022-09-28T05:58:15.228Z,13.05
2022-09-28T06:00:40.908Z,13.88
2022-09-28T06:03:09.247Z,12.32
2022-09-28T06:05:36.154Z,11.60
2022-09-28T06:08:00.837Z,12.40
2022-09-28T06:10:25.400Z,11.80
2022-09-28T06:12:57.845Z,11.98
2022-09-28T06:15:21.967Z,11.43
2022-09-28T06:17:46.801Z,11.45
2022-09-28T06:20:35.320Z,11.30
2022-09-28T06:23:13.646Z,11.02
2022-09-28T06:25:37.336Z,11.38
2022-09-28T06:28:03.299Z,11.27
2022-09-28T06:30:28.856Z,10.35
2022-09-28T06:32:56.308Z,10.88
2022-09-28T06:35:21.440Z,10.15
2022-09-28T06:37:46.391Z,10.27
2022-09-28T06:40:10.844Z,10.30
2022-09-28T06:42:34.441Z,9.98
2022-09-28T06:45:25.459Z,8.85
2022-09-28T06:48:13.452Z,9.52
2022-09-28T06:50:41.318Z,9.02
2022-09-28T06:53:18.927Z,8.63
2022-09-28T06:56:06.990Z,9.25
2022-09-28T06:58:32.323Z,8.65
2022-09-28T07:01:00.059Z,8.52
2022-09-28T07:03:27.648Z,8.38
2022-09-28T07:05:56.544Z,8.68
2022-09-28T07:08:37.826Z,8.05
2022-09-28T07:11:21.195Z,7.25
2022-09-28T07:14:18.325Z,7.38
2022-09-28T07:17:08.543Z,6.50
2022-09-28T07:19:32.119Z,7.13
2022-09-28T07:22:04.209Z,6.88
2022-09-28T07:24:29.837Z,5.88
2022-09-28T07:27:11.616Z,6.45
2022-09-28T07:29:50.114Z,6.68
2022-09-28T07:32:37.320Z,5.90
2022-09-28T07:35:22.295Z,6.45
2022-09-28T07:37:50.669Z,6.30
2022-09-28T07:40:32.165Z,6.50
2022-09-28T07:42:55.699Z,6.05
2022-09-28T07:45:20.731Z,6.47
2022-09-28T07:47:45.933Z,5.97
2022-09-28T07:50:22.932Z,5.88
2022-09-28T07:52:57.955Z,6.20
2022-09-28T07:55:41.699Z,6.07
2022-09-28T07:58:10.099Z,6.13
2022-09-28T08:00:52.545Z,5.80
2022-09-28T08:03:16.517Z,5.60
2022-09-28T08:05:42.889Z,6.28
2022-09-28T08:08:06.787Z,7.15
2022-09-28T08:10:31.598Z,6.40
2022-09-28T08:13:15.282Z,7.03
2022-09-28T08:15:55.021Z,7.00
2022-09-28T08:18:29.839Z,6.70
2022-09-28T08:21:12.504Z,7.15
2022-09-28T08:23:37.149Z,6.50
2022-09-28T08:26:00.891Z,6.70
2022-09-28T08:28:25.168Z,6.90
2022-09-28T08:30:52.905Z,7.50
2022-09-28T08:33:28.860Z,8.50
2022-09-28T08:36:32.399Z,8.75
2022-09-28T08:39:18.702Z,8.40
2022-09-28T08:42:32.795Z,8.07
2022-09-28T08:45:23.380Z,7.85
2022-09-28T08:48:39.128Z,8.02
2022-09-28T08:51:18.407Z,8.23
2022-09-28T08:54:11.069Z,7.75
2022-09-28T08:56:56.817Z,8.63
2022-09-28T08:59:23.834Z,8.50
2022-09-28T09:01:58.952Z,7.80
2022-09-28T09:04:23.774Z,7.18
2022-09-28T09:07:46.876Z,7.07
2022-09-28T09:10:44.559Z,8.15
2022-09-28T09:13:34.737Z,7.63
2022-09-28T09:16:11.977Z,7.55
2022-09-28T09:19:03.727Z,6.60
2022-09-28T09:21:56.033Z,7.38
2022-09-28T09:24:30.530Z,6.18
2022-09-28T09:27:15.697Z,6.22
2022-09-28T09:29:59.228Z,6.60
2022-09-28T09:33:09.183Z,6.40
2022-09-28T09:36:07.720Z,6.22
2022-09-28T09:39:03.552Z,5.88
2022-09-28T09:41:46.947Z,5.13
2022-09-28T09:44:58.093Z,4.95
2022-09-28T09:47:43.181Z,5.18
2022-09-28T09:50:39.939Z,5.43
2022-09-28T09:53:14.203Z,5.47
2022-09-28T09:55:43.837Z,5.47
2022-09-28T09:58:29.790Z,5.47
2022-09-28T10:01:26.894Z,5.03
2022-09-28T10:04:20.467Z,4.78
2022-09-28T10:06:45.748Z,4.93
2022-09-28T10:09:15.949Z,4.22
2022-09-28T10:11:44.409Z,4.30
2022-09-28T10:14:20.346Z,3.88
2022-09-28T10:17:00.258Z,3.50
2022-09-28T10:19:49.929Z,3.63
2022-09-28T10:22:39.611Z,3.60
2022-09-28T10:25:09.930Z,3.53
2022-09-28T10:27:37.442Z,3.95
2022-09-28T10:30:15.285Z,3.70
2022-09-28T10:32:43.821Z,3.45
2022-09-28T10:35:27.012Z,3.45
2022-09-28T10:37:59.308Z,4.30
2022-09-28T10:40:48.120Z,3.67
2022-09-28T10:43:23.786Z,2.97
2022-09-28T10:46:01.301Z,3.50
2022-09-28T10:48:27.140Z,3.67
2022-09-28T10:51:04.983Z,3.60
2022-09-28T10:53:29.930Z,3.45
2022-09-28T10:56:03.189Z,3.40
2022-09-28T10:58:37.285Z,4.32
2022-09-28T11:01:06.531Z,3.13
2022-09-28T11:03:32.649Z,3.10
2022-09-28T11:06:04.510Z,3.38
2022-09-28T11:08:32.651Z,3.35
2022-09-28T11:11:10.682Z,3.03
2022-09-28T11:13:42.108Z,2.78
2022-09-28T11:16:07.962Z,2.88
2022-09-28T11:18:36.525Z,2.95
2022-09-28T11:21:15.742Z,2.75
2022-09-28T11:24:14.437Z,2.78
2022-09-28T11:26:43.676Z,2.58
2022-09-28T11:29:24.791Z,2.70
2022-09-28T11:32:08.460Z,2.78
2022-09-28T11:34:59.612Z,2.17
2022-09-28T11:37:45.961Z,2.20
2022-09-28T11:40:30.969Z,2.30
2022-09-28T11:43:09.082Z,2.08
2022-09-28T11:45:50.772Z,1.98
2022-09-28T11:48:17.125Z,1.90
2022-09-28T11:50:50.890Z,1.70
2022-09-28T11:53:29.114Z,1.60
2022-09-28T11:56:03.305Z,1.88
2022-09-28T11:58:35.458Z,1.85
2022-09-28T12:01:06.362Z,1.80
2022-09-28T12:03:53.754Z,1.55
2022-09-28T12:06:25.475Z,1.60
2022-09-28T12:08:53.849Z,1.40
2022-09-28T12:11:43.482Z,1.60
2022-09-28T12:14:19.239Z,1.42
2022-09-28T12:17:07.160Z,1.38
2022-09-28T12:19:36.960Z,1.27
2022-09-28T12:22:06.905Z,1.40
2022-09-28T12:24:35.234Z,1.52
2022-09-28T12:27:05.485Z,1.52
2022-09-28T12:29:34.369Z,1.52
2022-09-28T12:32:06.009Z,1.40
2022-09-28T12:34:29.737Z,1.70
2022-09-28T12:37:15.702Z,1.70
2022-09-28T12:39:59.002Z,1.33
2022-09-28T12:42:44.139Z,1.80
2022-09-28T12:45:27.701Z,1.33
2022-09-28T12:48:12.953Z,1.65
2022-09-28T12:50:55.967Z,1.48
2022-09-28T12:53:43.585Z,1.38
2022-09-28T12:56:16.720Z,1.30
2022-09-28T12:59:01.013Z,1.70
2022-09-28T13:01:45.418Z,1.33
2022-09-28T13:04:30.353Z,1.60
2022-09-28T13:07:04.788Z,1.30
2022-09-28T13:09:38.685Z,1.45
2022-09-28T13:12:16.626Z,1.20
2022-09-28T13:15:21.774Z,1.00
2022-09-28T13:17:54.494Z,1.13
2022-09-28T13:20:31.305Z,1.10
2022-09-28T13:23:05.857Z,0.90
2022-09-28T13:25:34.758Z,0.98
2022-09-28T13:28:03.351Z,1.30
2022-09-28T13:30:27.179Z,0.90
2022-09-28T13:32:51.777Z,1.30
2022-09-28T13:35:19.369Z,1.35
2022-09-28T13:37:43.087Z,1.30
2022-09-28T13:40:10.224Z,1.40
2022-09-28T13:43:04.955Z,1.00
2022-09-28T13:46:01.487Z,0.80
2022-09-28T13:48:38.278Z,1.10
2022-09-28T13:51:31.896Z,1.00
2022-09-28T13:54:22.872Z,1.00
2022-09-28T13:56:54.992Z,1.10
2022-09-28T13:59:26.116Z,1.10
2022-09-28T14:01:55.832Z,0.90
2022-09-28T14:04:22.236Z,0.85
2022-09-28T14:06:54.845Z,0.90
2022-09-28T14:09:41.005Z,0.95
2022-09-28T14:13:06.537Z,1.10
2022-09-28T14:16:22.054Z,0.80
2022-09-28T14:18:47.409Z,0.93
2022-09-28T14:21:54.342Z,0.90
2022-09-28T14:24:35.498Z,0.88
2022-09-28T14:27:28.459Z,0.90
2022-09-28T14:30:07.957Z,0.90
2022-09-28T14:32:37.064Z,0.70
2022-09-28T14:35:04.858Z,0.80
2022-09-28T14:48:51.087Z,1.70
2022-09-28T14:54:28.333Z,3.90
2022-09-28T15:00:25.911Z,2.50
2022-09-28T15:02:52.763Z,2.50
2022-09-28T15:10:42.616Z,5.13
2022-09-28T15:13:18.723Z,24.30
2022-09-28T15:15:43.359Z,28.95
2022-09-28T15:18:43.618Z,12.52
2022-09-28T15:21:07.264Z,5.07
2022-09-28T15:23:38.797Z,2.00
2022-09-28T15:26:07.132Z,2.33
2022-09-28T15:28:30.455Z,1.80
2022-09-28T15:31:00.931Z,1.48
2022-09-28T15:33:46.686Z,1.27
2022-09-28T15:36:16.671Z,1.25
2022-09-28T15:38:41.714Z,1.73
2022-09-28T15:41:09.884Z,1.42
2022-09-28T15:43:37.151Z,1.17
2022-09-28T15:46:12.689Z,1.75
2022-09-28T15:48:42.055Z,1.90
2022-09-28T15:51:10.757Z,1.85
2022-09-28T15:53:35.015Z,2.45
2022-09-28T15:56:10.003Z,3.17
2022-09-28T15:58:33.339Z,1.90
2022-09-28T16:01:36.352Z,2.20
2022-09-28T16:04:01.841Z,1.95
2022-09-28T16:06:25.182Z,2.25
2022-09-28T16:08:49.506Z,2.00
2022-09-28T16:11:20.221Z,1.75
2022-09-28T16:14:06.074Z,2.45
2022-09-28T16:16:34.037Z,3.38
2022-09-28T16:19:00.521Z,2.90
2022-09-28T16:21:44.933Z,3.65
2022-09-28T16:24:09.320Z,2.70
2022-09-28T16:26:37.324Z,2.70
2022-09-28T16:29:02.176Z,2.25
2022-09-28T16:31:30.206Z,3.05
2022-09-28T16:33:56.223Z,3.13
2022-09-28T16:36:19.675Z,3.80
2022-09-28T16:38:46.308Z,3.47
2022-09-28T16:41:10.545Z,2.65
2022-09-28T16:43:36.596Z,3.15
2022-09-28T16:46:02.861Z,2.90
2022-09-28T16:48:28.588Z,2.90
2022-09-28T16:50:52.246Z,2.83
2022-09-28T16:53:35.043Z,2.95
2022-09-28T16:55:59.982Z,3.20
2022-09-28T16:58:23.840Z,3.30
2022-09-28T17:00:48.873Z,4.22
2022-09-28T17:03:18.641Z,4.20
2022-09-28T17:05:42.452Z,4.88
2022-09-28T17:08:06.198Z,6.63
2022-09-28T17:10:50.114Z,7.15
2022-09-28T17:13:18.902Z,7.45
2022-09-28T17:15:42.399Z,6.55
2022-09-28T17:18:07.657Z,6.32
2022-09-28T17:20:31.806Z,6.95
2022-09-28T17:22:55.319Z,6.20
2022-09-28T17:25:19.087Z,7.75
2022-09-28T17:27:46.373Z,8.07
2022-09-28T17:30:13.163Z,9.95
2022-09-28T17:32:36.418Z,7.85
2022-09-28T17:35:23.057Z,7.35
2022-09-28T17:37:44.754Z,5.50
2022-09-28T17:40:21.200Z,5.57
2022-09-28T17:42:44.523Z,8.27
2022-09-28T17:45:08.348Z,7.88
2022-09-28T17:47:34.365Z,6.75
2022-09-28T17:49:58.472Z,6.75
2022-09-28T17:52:23.145Z,6.28
2022-09-28T17:54:46.449Z,6.28
2022-09-28T17:57:11.398Z,6.55
2022-09-28T17:59:35.023Z,6.20
2022-09-28T18:02:02.157Z,7.10
2022-09-28T18:04:50.193Z,6.90
2022-09-28T18:07:10.008Z,7.30
2022-09-28T18:09:34.621Z,6.57
2022-09-28T18:12:01.548Z,7.47
2022-09-28T18:14:24.937Z,7.45
2022-09-28T18:16:48.192Z,8.13
2022-09-28T18:19:12.051Z,8.55
2022-09-28T18:21:35.423Z,8.05
2022-09-28T18:23:58.726Z,7.72
2022-09-28T18:26:23.403Z,9.23
2022-09-28T18:28:46.730Z,8.25
2022-09-28T18:31:11.028Z,9.77
2022-09-28T18:33:34.704Z,9.15
2022-09-28T18:35:58.083Z,8.10
2022-09-28T18:38:21.625Z,9.52
2022-09-28T18:40:44.991Z,8.27
2022-09-28T18:43:10.044Z,8.13
2022-09-28T18:45:33.281Z,7.35
2022-09-28T18:47:56.531Z,8.35
2022-09-28T18:50:20.171Z,8.23
2022-09-28T18:52:45.069Z,9.10
2022-09-28T18:55:09.507Z,8.13
2022-09-28T18:57:33.549Z,7.55
2022-09-28T18:59:58.191Z,8.40
2022-09-28T19:02:21.568Z,8.18
2022-09-28T19:04:44.937Z,8.52
2022-09-28T19:07:09.585Z,8.13
2022-09-28T19:09:33.079Z,8.52
2022-09-28T19:11:56.450Z,8.13
2022-09-28T19:14:19.977Z,7.30
2022-09-28T19:16:45.992Z,8.65
2022-09-28T19:19:13.597Z,7.75
2022-09-28T19:21:37.019Z,9.23
2022-09-28T19:24:03.423Z,7.32
2022-09-28T19:26:28.469Z,8.40
2022-09-28T19:28:52.097Z,7.97
2022-09-28T19:31:15.803Z,8.07
2022-09-28T19:33:41.947Z,8.15
2022-09-28T19:36:07.780Z,8.30
2022-09-28T19:38:32.676Z,6.53
2022-09-28T19:40:56.218Z,8.95
2022-09-28T19:43:21.277Z,8.80
2022-09-28T19:45:44.544Z,8.18
2022-09-28T19:48:08.193Z,8.60
2022-09-28T19:50:32.937Z,8.15
2022-09-28T19:52:57.087Z,8.95
2022-09-28T19:55:21.378Z,10.40
2022-09-28T19:57:47.855Z,8.65
2022-09-28T20:00:12.455Z,10.10
2022-09-28T20:02:36.232Z,10.07
2022-09-28T20:04:59.508Z,10.18
2022-09-28T20:07:24.158Z,8.40
2022-09-28T20:09:47.497Z,8.60
2022-09-28T20:12:11.156Z,9.77
2022-09-28T20:14:39.472Z,9.40
2022-09-28T20:17:03.513Z,9.02
2022-09-28T20:19:26.815Z,9.07
2022-09-28T20:21:50.671Z,9.60
2022-09-28T20:24:16.995Z,8.75
2022-09-28T20:26:40.390Z,8.60
2022-09-28T20:29:03.695Z,9.27
2022-09-28T20:31:27.564Z,9.50
2022-09-28T20:33:51.615Z,9.45
2022-09-28T20:36:17.151Z,9.90
2022-09-28T20:38:41.406Z,10.35
2022-09-28T20:41:06.357Z,9.45
2022-09-28T20:43:31.420Z,10.13
2022-09-28T20:45:56.736Z,10.45
2022-09-28T20:48:20.355Z,9.38
2022-09-28T20:50:43.954Z,9.25
2022-09-28T20:53:07.362Z,8.73
2022-09-28T20:55:30.630Z,8.98
2022-09-28T20:57:55.201Z,9.05
2022-09-28T21:00:18.730Z,10.10
2022-09-28T21:02:42.067Z,9.15
2022-09-28T21:05:06.904Z,8.75
2022-09-28T21:07:30.133Z,9.05
2022-09-28T21:09:53.617Z,9.50
2022-09-28T21:12:17.123Z,8.90
2022-09-28T21:14:41.836Z,8.35
2022-09-28T21:17:05.098Z,10.82
2022-09-28T21:19:29.391Z,10.05
2022-09-28T21:21:52.720Z,10.10
2022-09-28T21:24:15.979Z,11.70
2022-09-28T21:26:39.452Z,10.02
2022-09-28T21:29:05.694Z,9.00
2022-09-28T21:31:33.471Z,8.82
2022-09-28T21:33:56.961Z,9.55
2022-09-28T21:36:20.208Z,8.23
2022-09-28T21:38:43.492Z,8.60
2022-09-28T21:41:06.955Z,8.63
2022-09-28T21:43:32.573Z,8.88
2022-09-28T21:45:57.603Z,8.20
2022-09-28T21:48:23.910Z,9.00
2022-09-28T21:50:57.505Z,8.70
2022-09-28T21:53:20.710Z,8.60
2022-09-28T21:55:45.758Z,7.75
2022-09-28T21:58:09.091Z,8.80
2022-09-28T22:00:32.372Z,7.80
2022-09-28T22:02:55.833Z,8.60
2022-09-28T22:05:20.495Z,8.65
2022-09-28T22:07:44.334Z,8.25
2022-09-28T22:10:11.288Z,9.02
2022-09-28T22:12:34.931Z,8.93
2022-09-28T22:14:58.146Z,10.68
2022-09-28T22:17:21.463Z,9.68
2022-09-28T22:19:44.695Z,9.45
2022-09-28T22:22:09.384Z,10.05
2022-09-28T22:24:32.572Z,8.90
2022-09-28T22:26:55.823Z,8.43
2022-09-28T22:29:21.568Z,7.88
2022-09-28T22:31:44.792Z,8.18
2022-09-28T22:34:08.724Z,7.95
2022-09-28T22:36:32.524Z,8.45
2022-09-28T22:38:58.378Z,8.52
2022-09-28T22:41:22.588Z,8.15
2022-09-28T22:43:45.841Z,9.57
2022-09-28T22:46:11.786Z,8.80
2022-09-28T22:48:35.855Z,8.15
2022-09-28T22:50:59.452Z,8.85
2022-09-28T22:53:22.789Z,8.38
2022-09-28T22:55:47.387Z,8.15
2022-09-28T22:58:10.673Z,8.43
2022-09-28T23:00:33.930Z,7.85
2022-09-28T23:02:57.266Z,8.10
2022-09-28T23:05:20.651Z,8.23
2022-09-28T23:07:44.475Z,8.15
2022-09-28T23:10:08.640Z,8.35
2022-09-28T23:12:35.592Z,8.70
2022-09-28T23:14:58.809Z,8.15
2022-09-28T23:17:22.456Z,8.70
2022-09-28T23:19:45.706Z,8.77
2022-09-28T23:22:08.971Z,8.30
2022-09-28T23:24:32.152Z,9.15
2022-09-28T23:26:55.414Z,9.02
2022-09-28T23:29:20.232Z,8.70
2022-09-28T23:31:44.141Z,9.00
2022-09-28T23:34:08.019Z,8.18
2022-09-28T23:36:31.859Z,9.27
2022-09-28T23:38:55.147Z,8.90
2022-09-28T23:41:18.994Z,10.50
2022-09-28T23:43:42.317Z,9.95
2022-09-28T23:46:07.974Z,9.23
2022-09-28T23:48:31.466Z,10.32
2022-09-28T23:50:54.761Z,9.02
2022-09-28T23:53:18.030Z,9.40
2022-09-28T23:55:41.643Z,9.48
2022-09-28T23:58:05.020Z,9.15
